EGWU

RAF Northolt Airport

London, United Kingdom
METAR EGWU 210350Z AUTO 22001KT 4700 // OVC100/// 00/00 Q1014
Observed Flight Rules
Jan-21 @ 03:50 UTC (50 minutes ago) Instrument Flight Rules
Wind Visibility Clouds
220° at 1 knots 4,699 meters
  • Overcast at 10,000' AGL
Temperatures Readings
Current 0°C / 32°F
Dewpoint 0°C / 32°F
Humidity 100%
Altimeter 29.94" Hg
Pressure 1014 hPa
Elevation 40
METAR EGWU 210350Z AUTO 22001KT 4700 // OVC100/// 00/00 Q1014
Observed Flight Rules
Jan-21 @ 03:50 UTC
(50 minutes ago)
IFR
Wind Visibility
220° at 1 knots 4,699 meters
Clouds
  • Overcast at 10,000' AGL
Temperature Dewpoint
0°C / 32°F 0°C / 32°F
Humidity Altimeter Pressure
100% 29.94" Hg 1014 hPa